Time;durP1;ratioP1;P1;durP2;ratioP2;P2;SDS_P1;SDS_P2;PMS_P1;PMS_P2;Temp;Humidity;BMP_temperature;BMP_pressure;BME280_temperature;BME280_humidity;BME280_pressure;Samples;Min_cycle;Max_cycle;Signal;HPM_P1;HPM_P2
2022/08/07 00:00:23;;;;;;;10.23;4.88;;;;;;;21.50;47.58;102753.94;5010981;28;20042;-69
2022/08/07 00:02:48;;;;;;;5.43;4.20;;;;;;;21.29;48.38;102764.81;5012097;28;20034;-68
2022/08/07 00:05:13;;;;;;;6.20;4.05;;;;;;;21.46;47.91;102761.00;5012380;28;20375;-68
2022/08/07 00:07:39;;;;;;;5.40;3.95;;;;;;;21.44;48.27;102763.19;5011836;28;20045;-68
2022/08/07 00:10:05;;;;;;;6.32;4.05;;;;;;;21.37;48.39;102759.78;5011916;28;20033;-67
2022/08/07 00:12:30;;;;;;;7.85;3.95;;;;;;;21.16;48.90;102755.06;5011984;28;20050;-68
2022/08/07 00:14:57;;;;;;;7.70;3.90;;;;;;;21.36;48.23;102755.38;5011699;28;20038;-67
2022/08/07 00:17:22;;;;;;;5.82;4.75;;;;;;;21.18;48.55;102752.06;5012201;28;20026;-67
2022/08/07 00:19:48;;;;;;;10.48;4.22;;;;;;;21.22;48.81;102761.44;5011581;28;20049;-67
2022/08/07 00:22:13;;;;;;;9.95;4.50;;;;;;;21.14;49.57;102751.75;5011803;28;20046;-69
2022/08/07 00:24:39;;;;;;;5.95;4.70;;;;;;;21.09;49.61;102753.59;5011702;28;20042;-67
2022/08/07 00:27:04;;;;;;;12.50;4.63;;;;;;;21.04;49.71;102750.75;5011698;28;20104;-67
2022/08/07 00:29:30;;;;;;;6.05;4.90;;;;;;;21.12;49.42;102747.59;5011340;28;20405;-69
2022/08/07 00:31:58;;;;;;;8.30;4.40;;;;;;;21.08;49.50;102750.00;5011835;28;20030;-67
2022/08/07 00:34:25;;;;;;;7.47;4.53;;;;;;;21.05;49.91;102747.75;5011460;28;20034;-70
2022/08/07 00:36:51;;;;;;;9.23;4.82;;;;;;;20.93;49.93;102742.34;5011578;28;20033;-67
2022/08/07 00:39:18;;;;;;;7.32;4.22;;;;;;;20.84;50.90;102748.47;5011711;28;20383;-68
2022/08/07 00:41:54;;;;;;;5.45;3.88;;;;;;;20.70;51.64;102745.22;5011439;28;20037;-65
2022/08/07 00:44:19;;;;;;;6.05;4.50;;;;;;;20.80;51.50;102745.41;5011406;28;20030;-67
2022/08/07 00:46:45;;;;;;;6.93;4.55;;;;;;;20.84;51.24;102743.00;5011386;28;20129;-67
2022/08/07 00:49:11;;;;;;;6.13;4.30;;;;;;;20.82;50.75;102737.78;5011426;28;20038;-66
2022/08/07 00:51:36;;;;;;;7.35;4.15;;;;;;;20.84;50.63;102738.38;5011266;28;20153;-68
2022/08/07 00:54:02;;;;;;;10.35;4.95;;;;;;;20.91;50.46;102743.69;5009757;28;20177;-68
2022/08/07 00:56:30;;;;;;;5.95;4.93;;;;;;;20.93;50.29;102739.59;5011441;28;20034;-67
2022/08/07 00:58:57;;;;;;;6.70;4.60;;;;;;;20.81;50.62;102741.59;5011501;28;20022;-67
2022/08/07 01:01:23;;;;;;;5.55;3.70;;;;;;;20.81;50.71;102744.31;5010847;28;20072;-68
2022/08/07 01:03:50;;;;;;;5.75;4.07;;;;;;;20.81;50.22;102736.13;5010899;28;20065;-67
2022/08/07 01:06:16;;;;;;;6.05;4.90;;;;;;;20.71;49.92;102727.78;5010961;28;20052;-68
2022/08/07 01:08:42;;;;;;;5.63;4.13;;;;;;;20.75;50.21;102730.84;5010714;28;20160;-67
2022/08/07 01:11:08;;;;;;;7.72;4.93;;;;;;;20.87;50.28;102734.31;5011139;28;20046;-68
2022/08/07 01:13:34;;;;;;;6.97;5.22;;;;;;;20.63;50.90;102736.38;5010999;28;20042;-67
2022/08/07 01:16:01;;;;;;;5.78;4.45;;;;;;;20.79;50.57;102737.47;5011028;28;20292;-69
2022/08/07 01:18:28;;;;;;;6.57;5.00;;;;;;;20.66;51.08;102729.56;5010802;28;20078;-67
2022/08/07 01:21:07;;;;;;;5.13;4.43;;;;;;;20.57;52.07;102729.16;5011221;28;20501;-67
2022/08/07 01:23:33;;;;;;;6.60;4.72;;;;;;;20.61;51.61;102735.78;5009764;28;20122;-68
2022/08/07 01:25:59;;;;;;;7.60;4.88;;;;;;;20.52;51.68;102730.97;5011212;28;20026;-69
2022/08/07 01:28:25;;;;;;;7.18;5.72;;;;;;;20.47;51.42;102728.97;5010705;28;20042;-68
2022/08/07 01:30:52;;;;;;;6.35;4.82;;;;;;;20.43;51.45;102730.53;5010744;28;20117;-68
2022/08/07 01:33:18;;;;;;;6.70;4.80;;;;;;;20.39;51.25;102726.63;5010804;28;20073;-68
2022/08/07 01:35:44;;;;;;;9.20;4.75;;;;;;;20.31;51.17;102731.63;5010866;28;20053;-67
2022/08/07 01:38:10;;;;;;;9.00;5.15;;;;;;;20.42;50.85;102725.31;5011586;28;20105;-69
2022/08/07 01:40:37;;;;;;;5.55;4.75;;;;;;;20.39;50.46;102725.78;5010763;28;20040;-68
2022/08/07 01:43:02;;;;;;;5.10;4.50;;;;;;;20.56;50.07;102723.94;5010592;28;20042;-68
2022/08/07 01:45:28;;;;;;;9.48;5.57;;;;;;;20.20;51.31;102716.97;5010321;28;20030;-69
2022/08/07 01:47:53;;;;;;;7.30;4.90;;;;;;;20.17;51.38;102720.97;5011032;28;20045;-68
2022/08/07 01:50:19;;;;;;;6.07;4.40;;;;;;;20.17;51.92;102714.69;5011123;28;20385;-70
2022/08/07 01:52:47;;;;;;;5.88;4.38;;;;;;;20.21;51.64;102715.88;4993036;28;20430;-70
2022/08/07 01:55:14;;;;;;;6.43;5.40;;;;;;;20.14;51.78;102715.19;4992811;28;20042;-70
2022/08/07 01:57:41;;;;;;;6.38;4.55;;;;;;;20.33;50.88;102716.66;4990314;28;20113;-70
2022/08/07 02:00:10;;;;;;;6.82;4.85;;;;;;;19.95;52.14;102714.53;4991559;28;20047;-71
2022/08/07 02:02:35;;;;;;;6.95;5.00;;;;;;;19.91;52.03;102716.06;4990019;28;20030;-72
2022/08/07 02:05:06;;;;;;;7.32;5.53;;;;;;;20.10;51.41;102716.75;4991995;28;20290;-70
2022/08/07 02:07:38;;;;;;;9.98;5.30;;;;;;;20.25;51.24;102711.59;4991386;28;20042;-70
2022/08/07 02:10:05;;;;;;;8.10;5.20;;;;;;;20.11;51.43;102707.47;4991177;28;20043;-71
2022/08/07 02:12:35;;;;;;;10.57;6.47;;;;;;;20.11;51.47;102711.03;4990916;28;20447;-71
2022/08/07 02:15:01;;;;;;;10.18;6.13;;;;;;;20.10;51.27;102709.38;4990912;28;20045;-69
2022/08/07 02:17:28;;;;;;;6.72;5.20;;;;;;;20.00;51.37;102695.53;4991497;28;20054;-70
2022/08/07 02:19:54;;;;;;;10.02;5.25;;;;;;;20.22;50.38;102700.34;4991468;28;20116;-70
2022/08/07 02:22:22;;;;;;;7.38;5.50;;;;;;;20.19;50.58;102700.81;4992225;28;20049;-70
2022/08/07 02:24:51;;;;;;;8.77;5.63;;;;;;;20.20;50.75;102697.88;4994766;28;20023;-69
2022/08/07 02:27:20;;;;;;;7.43;5.90;;;;;;;20.15;50.83;102704.00;4994991;28;20052;-70
2022/08/07 02:29:48;;;;;;;6.63;4.80;;;;;;;20.17;50.51;102692.03;4994971;28;20104;-70
2022/08/07 02:32:17;;;;;;;7.03;4.93;;;;;;;20.11;50.57;102699.28;4995128;28;20034;-69
2022/08/07 02:34:45;;;;;;;7.50;4.97;;;;;;;20.29;49.96;102698.28;4994282;28;20522;-67
2022/08/07 02:37:13;;;;;;;6.88;5.25;;;;;;;20.28;50.06;102700.22;4994305;28;20038;-69
2022/08/07 02:39:42;;;;;;;6.38;5.03;;;;;;;20.31;49.62;102696.13;4994228;28;20046;-67
2022/08/07 02:42:08;;;;;;;6.70;5.65;;;;;;;20.20;50.05;102692.41;4993915;28;20035;-66
2022/08/07 02:44:35;;;;;;;7.15;5.13;;;;;;;20.06;50.35;102696.47;4993916;28;20030;-67
2022/08/07 02:47:02;;;;;;;10.55;5.55;;;;;;;19.90;50.94;102692.59;4994320;28;20141;-66
2022/08/07 02:49:28;;;;;;;9.88;5.82;;;;;;;19.82;51.39;102692.97;4993877;28;20038;-67
2022/08/07 02:51:57;;;;;;;7.30;5.53;;;;;;;19.93;51.54;102692.09;4993940;28;20038;-68
2022/08/07 02:54:26;;;;;;;9.57;5.72;;;;;;;20.14;51.14;102687.88;4993828;28;20042;-67
2022/08/07 02:56:53;;;;;;;8.70;5.50;;;;;;;20.08;51.00;102684.22;4994059;28;20049;-67
2022/08/07 02:59:22;;;;;;;5.95;5.28;;;;;;;20.00;51.37;102684.63;4994735;28;20431;-68
2022/08/07 03:01:52;;;;;;;7.15;5.00;;;;;;;19.47;52.72;102686.75;4993800;28;20030;-67
2022/08/07 03:04:19;;;;;;;6.60;5.22;;;;;;;19.36;53.24;102687.59;4993705;28;20046;-67
2022/08/07 03:06:47;;;;;;;6.60;5.63;;;;;;;19.39;53.50;102689.00;4993937;28;20525;-66
2022/08/07 03:09:14;;;;;;;6.28;5.63;;;;;;;19.36;53.29;102690.31;4993940;28;20042;-66
2022/08/07 03:11:40;;;;;;;7.85;5.22;;;;;;;19.20;53.23;102688.31;4993680;28;20125;-66
2022/08/07 03:14:06;;;;;;;8.10;6.07;;;;;;;19.25;53.30;102682.94;4994083;28;20058;-68
2022/08/07 03:16:34;;;;;;;9.93;5.30;;;;;;;19.13;53.51;102690.28;4993240;28;20104;-67
2022/08/07 03:19:00;;;;;;;7.97;6.45;;;;;;;19.38;53.08;102690.91;4993186;28;20047;-65
2022/08/07 03:21:28;;;;;;;8.20;6.50;;;;;;;19.28;53.20;102690.66;4993773;28;20046;-70
2022/08/07 03:23:55;;;;;;;6.45;5.22;;;;;;;19.28;53.19;102687.94;4992067;28;20038;-66
2022/08/07 03:26:24;;;;;;;11.25;5.43;;;;;;;19.06;53.65;102686.88;4994159;28;20208;-67
2022/08/07 03:28:53;;;;;;;6.50;5.18;;;;;;;19.24;53.11;102687.56;4993376;28;20116;-68
2022/08/07 03:31:21;;;;;;;7.10;5.43;;;;;;;19.12;54.05;102685.94;4993016;28;20046;-68
2022/08/07 03:34:01;;;;;;;10.93;6.22;;;;;;;19.17;53.30;102691.47;4993252;28;20030;-67
2022/08/07 03:36:28;;;;;;;7.30;6.10;;;;;;;19.18;52.99;102683.06;4993483;28;20045;-68
2022/08/07 03:38:57;;;;;;;8.40;6.22;;;;;;;19.11;53.25;102682.38;4993313;28;20070;-67
2022/08/07 03:41:24;;;;;;;6.30;5.28;;;;;;;19.16;52.96;102690.66;4994023;28;20026;-67
2022/08/07 03:43:49;;;;;;;10.93;6.13;;;;;;;19.19;52.34;102683.91;4993211;28;20046;-67
2022/08/07 03:46:15;;;;;;;11.85;7.00;;;;;;;19.10;52.97;102693.50;4992755;28;20061;-67
2022/08/07 03:48:41;;;;;;;8.43;6.13;;;;;;;19.14;52.82;102686.53;4992977;28;20038;-67
2022/08/07 03:51:07;;;;;;;10.38;7.43;;;;;;;19.22;52.64;102688.91;4993043;28;20038;-67
2022/08/07 03:53:33;;;;;;;9.50;6.20;;;;;;;19.07;53.09;102699.41;4992749;28;20044;-67
2022/08/07 03:56:01;;;;;;;7.25;6.00;;;;;;;19.15;52.95;102693.63;4993425;28;20030;-66
2022/08/07 03:58:28;;;;;;;9.30;6.35;;;;;;;19.07;53.08;102694.81;4991610;28;20038;-68
2022/08/07 04:00:56;;;;;;;8.32;6.05;;;;;;;19.09;52.64;102702.72;4991521;28;20397;-67
2022/08/07 04:03:21;;;;;;;8.13;5.88;;;;;;;19.08;52.86;102690.19;4972679;28;20042;-68
2022/08/07 04:05:47;;;;;;;13.35;7.00;;;;;;;19.06;53.38;102684.16;4982039;28;20100;-68
2022/08/07 04:08:14;;;;;;;8.10;5.90;;;;;;;19.08;53.10;102690.19;4990987;28;20088;-67
2022/08/07 04:10:41;;;;;;;6.68;5.30;;;;;;;19.06;53.36;102686.88;4980669;28;20493;-67
2022/08/07 04:13:10;;;;;;;10.88;7.18;;;;;;;19.03;53.14;102687.31;4989645;28;20129;-68
2022/08/07 04:15:35;;;;;;;9.77;6.25;;;;;;;18.99;53.12;102688.88;4990585;28;20062;-66
2022/08/07 04:18:02;;;;;;;8.77;6.55;;;;;;;19.07;53.11;102688.50;4990592;28;20073;-68
2022/08/07 04:20:28;;;;;;;10.55;6.32;;;;;;;19.10;53.05;102691.59;4993126;28;20089;-67
2022/08/07 04:22:54;;;;;;;8.68;5.97;;;;;;;18.89;53.52;102699.50;4993455;28;20038;-67
2022/08/07 04:25:23;;;;;;;6.75;5.82;;;;;;;19.21;52.90;102700.84;4993347;28;20031;-68
2022/08/07 04:27:49;;;;;;;9.30;6.32;;;;;;;19.25;52.20;102702.88;4993214;28;20044;-66
2022/08/07 04:30:14;;;;;;;12.48;5.60;;;;;;;19.11;52.65;102692.44;4993331;28;20030;-68
2022/08/07 04:32:41;;;;;;;8.38;6.28;;;;;;;19.07;53.07;102699.41;4992904;28;20214;-67
2022/08/07 04:35:08;;;;;;;6.68;5.60;;;;;;;19.02;53.03;102702.03;4993500;28;20110;-68
2022/08/07 04:37:34;;;;;;;8.13;6.18;;;;;;;19.18;53.02;102699.41;4993256;28;20049;-67
2022/08/07 04:40:00;;;;;;;10.82;6.60;;;;;;;19.21;52.71;102704.41;4992921;28;20121;-68
2022/08/07 04:42:29;;;;;;;8.35;5.68;;;;;;;19.14;53.61;102713.78;4993014;28;20145;-66
2022/08/07 04:44:57;;;;;;;9.60;6.97;;;;;;;19.23;52.46;102715.06;4992422;28;20072;-66
2022/08/07 04:47:31;;;;;;;7.43;6.13;;;;;;;19.22;53.22;102714.22;4993542;28;20390;-68
2022/08/07 04:50:06;;;;;;;7.40;6.10;;;;;;;19.23;53.31;102707.72;4993422;28;20069;-67
2022/08/07 04:52:45;;;;;;;9.25;6.57;;;;;;;19.26;53.07;102707.25;4992661;28;20046;-68
2022/08/07 04:55:27;;;;;;;10.48;7.05;;;;;;;19.25;53.29;102702.88;4992496;28;20039;-67
2022/08/07 04:58:14;;;;;;;13.07;8.02;;;;;;;19.48;52.48;102693.06;4992651;28;20034;-66
2022/08/07 05:00:52;;;;;;;16.48;8.05;;;;;;;19.55;52.22;102699.19;4992541;28;20034;-65
2022/08/07 05:03:29;;;;;;;12.27;8.15;;;;;;;19.49;52.23;102697.44;4992626;28;20130;-67
2022/08/07 05:06:07;;;;;;;11.98;7.72;;;;;;;19.50;52.48;102704.56;4992674;28;20050;-66
2022/08/07 05:08:46;;;;;;;13.60;8.32;;;;;;;19.62;51.56;102708.91;4992496;28;20036;-68
2022/08/07 05:11:22;;;;;;;10.55;7.28;;;;;;;19.39;53.19;102705.38;4992909;28;20042;-67
2022/08/07 05:13:56;;;;;;;10.25;7.68;;;;;;;19.72;52.62;102697.38;4992418;28;20077;-67
2022/08/07 05:16:23;;;;;;;11.30;8.88;;;;;;;19.74;52.63;102709.72;4992363;28;20403;-67
2022/08/07 05:19:02;;;;;;;10.50;7.63;;;;;;;19.58;53.13;102709.63;4990038;28;20045;-67
2022/08/07 05:21:30;;;;;;;10.68;7.60;;;;;;;19.70;53.23;102710.44;4991603;28;20046;-68
2022/08/07 05:24:10;;;;;;;8.98;6.80;;;;;;;19.85;52.95;102717.03;4991780;28;20414;-68
2022/08/07 05:26:37;;;;;;;10.05;7.13;;;;;;;19.79;53.32;102712.53;4991520;28;20045;-66
2022/08/07 05:29:06;;;;;;;10.02;7.70;;;;;;;19.90;53.18;102716.31;4992188;28;20026;-67
2022/08/07 05:31:37;;;;;;;11.82;7.22;;;;;;;20.00;52.80;102720.09;4991492;28;20049;-69
2022/08/07 05:34:06;;;;;;;14.52;8.73;;;;;;;20.03;52.52;102714.13;4991480;28;20077;-67
2022/08/07 05:36:33;;;;;;;12.07;8.68;;;;;;;20.06;52.79;102715.56;4990153;28;20038;-68
2022/08/07 05:39:00;;;;;;;13.13;9.63;;;;;;;20.15;52.38;102709.47;4991903;28;20120;-65
2022/08/07 05:41:26;;;;;;;11.90;8.80;;;;;;;20.17;51.78;102715.53;4992198;28;20034;-67
2022/08/07 05:43:54;;;;;;;13.05;9.52;;;;;;;20.23;51.90;102716.47;4992924;28;20046;-67
2022/08/07 05:46:20;;;;;;;18.77;10.70;;;;;;;20.27;52.00;102711.34;4991985;28;20038;-68
2022/08/07 05:48:47;;;;;;;14.15;10.80;;;;;;;20.31;51.61;102707.06;4992107;28;20089;-69
2022/08/07 05:51:13;;;;;;;17.42;12.20;;;;;;;20.24;51.97;102709.97;4992086;28;20505;-66
2022/08/07 05:53:39;;;;;;;18.48;11.85;;;;;;;20.39;51.34;102712.13;4992106;28;20505;-67
2022/08/07 05:56:06;;;;;;;19.58;12.88;;;;;;;20.50;51.38;102712.06;4992435;28;20038;-68
2022/08/07 05:58:35;;;;;;;18.73;12.07;;;;;;;20.57;51.42;102717.38;4995234;28;20031;-67
2022/08/07 06:01:02;;;;;;;18.98;12.25;;;;;;;20.68;51.01;102717.31;4995837;28;20320;-67
2022/08/07 06:03:29;;;;;;;17.77;12.13;;;;;;;20.72;51.10;102720.38;4995560;28;20092;-67
2022/08/07 06:05:56;;;;;;;23.13;12.75;;;;;;;20.77;50.79;102715.00;4995559;28;20042;-69
2022/08/07 06:08:22;;;;;;;24.05;13.48;;;;;;;20.88;50.33;102720.41;4994612;28;20050;-70
2022/08/07 06:10:47;;;;;;;25.38;12.77;;;;;;;20.97;50.59;102713.44;4995528;28;20097;-67
2022/08/07 06:13:13;;;;;;;17.83;13.32;;;;;;;21.02;49.86;102717.34;4995634;28;20046;-67
2022/08/07 06:15:39;;;;;;;19.15;12.60;;;;;;;21.04;50.37;102720.69;4999158;28;20045;-66
2022/08/07 06:18:06;;;;;;;18.73;12.57;;;;;;;21.14;49.89;102720.84;5010339;28;20069;-65
2022/08/07 06:20:36;;;;;;;20.98;13.73;;;;;;;21.28;49.74;102719.41;5010437;28;20134;-66
2022/08/07 06:23:04;;;;;;;22.77;14.27;;;;;;;21.41;49.60;102722.63;5014849;28;20026;-67
2022/08/07 06:25:29;;;;;;;16.05;12.80;;;;;;;21.78;48.00;102720.94;5010243;28;20429;-68
2022/08/07 06:28:09;;;;;;;18.48;13.48;;;;;;;21.85;48.13;102723.53;5014544;28;20038;-68
2022/08/07 06:30:36;;;;;;;18.83;13.35;;;;;;;22.06;46.95;102722.69;4997810;28;20046;-68
2022/08/07 06:33:02;;;;;;;19.10;13.02;;;;;;;22.09;47.47;102722.22;4986666;28;20037;-68
2022/08/07 06:35:28;;;;;;;22.98;13.70;;;;;;;22.19;46.77;102722.28;5011786;28;20057;-66
2022/08/07 06:37:53;;;;;;;17.83;11.80;;;;;;;21.87;47.78;102728.75;5014730;28;20073;-66
2022/08/07 06:40:18;;;;;;;17.40;12.70;;;;;;;22.15;46.92;102718.41;5014282;28;20042;-67
2022/08/07 06:42:47;;;;;;;18.88;12.90;;;;;;;22.44;45.69;102711.63;5008383;28;20418;-67
2022/08/07 06:45:15;;;;;;;18.20;11.80;;;;;;;22.53;45.26;102712.81;5010839;28;20052;-67
2022/08/07 06:47:41;;;;;;;17.65;11.95;;;;;;;22.69;44.54;102711.06;5014245;28;20033;-68
2022/08/07 06:50:07;;;;;;;16.52;11.35;;;;;;;22.67;44.68;102715.97;5014828;28;20466;-66
2022/08/07 06:52:36;;;;;;;18.35;12.38;;;;;;;22.72;44.34;102716.03;5012073;28;20042;-68
2022/08/07 06:55:14;;;;;;;17.83;12.55;;;;;;;22.78;44.80;102720.44;5007222;28;20464;-67
2022/08/07 06:57:41;;;;;;;15.38;11.27;;;;;;;22.75;44.70;102723.72;5013956;28;20050;-67
2022/08/07 07:00:07;;;;;;;15.82;12.07;;;;;;;22.86;44.27;102732.88;5013011;28;20060;-66
2022/08/07 07:02:34;;;;;;;16.15;12.80;;;;;;;22.87;44.13;102731.78;5008591;28;20038;-67
2022/08/07 07:05:01;;;;;;;14.50;11.07;;;;;;;23.01;44.27;102727.50;5011016;28;20151;-65
2022/08/07 07:07:26;;;;;;;18.50;10.88;;;;;;;23.09;43.83;102730.59;5013408;28;20073;-66
2022/08/07 07:09:52;;;;;;;16.38;11.30;;;;;;;23.11;43.62;102735.81;5013104;28;20138;-68
2022/08/07 07:12:38;;;;;;;21.45;12.77;;;;;;;23.08;44.33;102739.91;5013523;28;20033;-68
2022/08/07 07:15:10;;;;;;;14.98;11.35;;;;;;;23.23;43.18;102734.53;5011675;28;20129;-67
2022/08/07 07:18:02;;;;;;;16.10;11.63;;;;;;;23.28;42.79;102741.97;5009423;28;20022;-67
2022/08/07 07:20:36;;;;;;;17.35;11.73;;;;;;;23.20;43.14;102740.56;5012835;28;20080;-66
2022/08/07 07:23:04;;;;;;;17.73;12.63;;;;;;;23.40;42.76;102735.25;5010223;28;20445;-65
2022/08/07 07:25:29;;;;;;;22.70;12.90;;;;;;;23.45;42.29;102735.25;4984538;28;20039;-66
2022/08/07 07:28:11;;;;;;;18.67;11.82;;;;;;;23.48;42.14;102736.66;4984994;28;20038;-66
2022/08/07 07:30:40;;;;;;;19.35;11.27;;;;;;;23.21;42.86;102733.97;4999940;28;20042;-68
2022/08/07 07:33:09;;;;;;;17.05;12.48;;;;;;;23.75;41.75;102736.53;5003433;28;20127;-68
2022/08/07 07:35:36;;;;;;;15.65;10.55;;;;;;;23.90;41.29;102729.19;4995818;28;20019;-68
2022/08/07 07:38:04;;;;;;;13.73;9.65;;;;;;;24.01;41.14;102727.31;5004838;28;20422;-67
2022/08/07 07:40:31;;;;;;;11.55;8.45;;;;;;;24.17;40.67;102729.88;5010130;28;20044;-67
2022/08/07 07:43:02;;;;;;;14.90;8.50;;;;;;;24.20;39.81;102726.59;5002635;28;20129;-66
2022/08/07 07:45:29;;;;;;;11.07;8.55;;;;;;;24.31;39.86;102728.25;5007550;28;20057;-67
2022/08/07 07:47:57;;;;;;;14.60;8.95;;;;;;;24.40;39.40;102725.81;5009158;28;20419;-69
2022/08/07 07:50:24;;;;;;;10.50;8.77;;;;;;;24.46;39.21;102716.47;5009608;28;20110;-66
2022/08/07 07:52:51;;;;;;;13.20;9.00;;;;;;;24.31;39.92;102721.94;5009195;28;20050;-67
2022/08/07 07:55:18;;;;;;;10.40;7.55;;;;;;;24.50;39.29;102708.50;5007536;28;20038;-66
2022/08/07 07:57:45;;;;;;;9.82;5.75;;;;;;;24.71;37.84;102705.50;5009813;28;20034;-66
2022/08/07 08:00:13;;;;;;;6.07;4.93;;;;;;;24.66;37.79;102707.41;5011389;28;20042;-66
2022/08/07 08:02:42;;;;;;;8.45;5.68;;;;;;;24.60;38.35;102719.50;5001839;28;20102;-67
2022/08/07 08:05:10;;;;;;;8.48;5.63;;;;;;;24.91;37.76;102716.53;4993562;28;20054;-66
2022/08/07 08:07:37;;;;;;;10.63;6.75;;;;;;;24.85;37.42;102714.88;4992329;28;20088;-66
2022/08/07 08:10:04;;;;;;;10.90;6.10;;;;;;;25.00;37.26;102714.88;5009639;28;20038;-68
2022/08/07 08:12:32;;;;;;;9.23;5.85;;;;;;;25.01;37.70;102705.53;4993513;28;20038;-66
2022/08/07 08:14:58;;;;;;;9.65;5.90;;;;;;;25.18;37.66;102707.97;4978285;28;20395;-68
2022/08/07 08:17:24;;;;;;;11.07;7.45;;;;;;;25.20;37.04;102706.59;4981549;28;20043;-67
2022/08/07 08:19:53;;;;;;;9.63;6.32;;;;;;;24.86;37.38;102701.97;4972898;28;20053;-69
2022/08/07 08:27:53;;;;;;;7.63;4.90;;;;;;;25.22;36.02;102701.63;4973904;28;20046;-67
2022/08/07 08:30:20;;;;;;;9.95;4.88;;;;;;;25.45;36.33;102693.91;4973679;28;20513;-66
2022/08/07 08:32:50;;;;;;;7.10;4.60;;;;;;;25.24;36.44;102702.19;4973729;28;20495;-66
2022/08/07 08:35:26;;;;;;;7.65;4.78;;;;;;;25.53;35.91;102696.94;4973958;28;20051;-68
2022/08/07 08:38:02;;;;;;;5.28;4.28;;;;;;;25.31;35.74;102690.06;4972227;28;20062;-68
2022/08/07 08:40:32;;;;;;;8.85;4.72;;;;;;;25.78;34.97;102690.50;4973579;28;20066;-66
2022/08/07 08:43:21;;;;;;;8.23;4.65;;;;;;;25.50;35.28;102683.72;4973355;28;20487;-67
2022/08/07 08:46:02;;;;;;;10.93;4.53;;;;;;;25.30;35.65;102688.44;4951386;29;20051;-65
2022/08/07 08:48:54;;;;;;;5.82;4.13;;;;;;;25.61;35.39;102682.56;4951380;29;20047;-68
2022/08/07 08:52:04;;;;;;;7.10;4.28;;;;;;;25.12;35.47;102682.41;4951411;29;20043;-68
2022/08/07 08:54:40;;;;;;;7.05;4.07;;;;;;;25.78;35.05;102680.31;4955660;28;20047;-67
2022/08/07 08:57:12;;;;;;;5.93;4.00;;;;;;;25.89;35.37;102672.78;4982691;28;20034;-66
2022/08/07 08:59:40;;;;;;;6.63;3.42;;;;;;;25.70;34.87;102671.78;4978138;28;20941;-69
2022/08/07 09:02:29;;;;;;;6.07;3.78;;;;;;;26.13;34.52;102676.56;4977390;28;20026;-68
2022/08/07 09:05:20;;;;;;;8.20;4.10;;;;;;;25.68;35.20;102672.09;4972454;28;20046;-66
2022/08/07 09:08:10;;;;;;;4.88;3.40;;;;;;;26.19;34.04;102675.41;4967891;28;20031;-66
2022/08/07 09:10:45;;;;;;;6.70;3.70;;;;;;;25.97;34.47;102680.47;4973010;28;20051;-66
2022/08/07 09:13:31;;;;;;;14.13;4.68;;;;;;;26.02;34.15;102669.44;4971595;28;20050;-66
2022/08/07 09:16:04;;;;;;;8.00;3.50;;;;;;;25.15;35.53;102665.34;4973083;28;20042;-65
2022/08/07 09:19:07;;;;;;;7.43;4.05;;;;;;;25.78;34.75;102680.31;4974425;28;20119;-65
2022/08/07 09:22:04;;;;;;;4.72;3.92;;;;;;;25.46;34.78;102681.78;4958937;28;20055;-68
2022/08/07 09:24:46;;;;;;;4.50;2.95;;;;;;;26.39;33.45;102680.81;4972178;28;20038;-67
2022/08/07 09:27:29;;;;;;;5.43;3.40;;;;;;;26.84;32.82;102674.94;4972224;28;20403;-66
2022/08/07 09:30:01;;;;;;;3.08;2.35;;;;;;;26.83;33.03;102676.06;4991398;28;20045;-66
2022/08/07 09:32:57;;;;;;;6.45;3.30;;;;;;;27.26;31.99;102667.91;5004097;28;20084;-67
2022/08/07 09:36:05;;;;;;;3.92;2.95;;;;;;;26.02;32.83;102666.69;5006959;28;20117;-67
2022/08/07 09:38:36;;;;;;;4.03;2.25;;;;;;;25.76;33.25;102667.91;4992644;28;20049;-67
2022/08/07 09:41:34;;;;;;;3.20;2.38;;;;;;;25.18;33.94;102669.44;5009342;28;20041;-66
2022/08/07 09:44:05;;;;;;;3.72;2.50;;;;;;;25.63;33.07;102657.53;4961325;28;20047;-67
2022/08/07 09:47:06;;;;;;;3.58;1.95;;;;;;;27.08;31.15;102661.19;4961570;28;20126;-68
2022/08/07 09:50:05;;;;;;;3.00;2.30;;;;;;;26.64;30.92;102658.53;4945461;28;20046;-68
2022/08/07 09:52:41;;;;;;;7.10;2.40;;;;;;;26.08;32.21;102651.81;4955156;28;20043;-67
2022/08/07 09:55:17;;;;;;;2.03;1.75;;;;;;;26.68;31.83;102659.59;4965213;28;20039;-66
2022/08/07 09:58:28;;;;;;;6.35;1.88;;;;;;;26.97;31.38;102659.63;4961057;28;20527;-67
2022/08/07 10:01:12;;;;;;;;;;;;;;;25.90;33.50;102663.44;4901386;29;20446;-66
2022/08/07 10:03:56;;;;;;;3.10;2.15;;;;;;;27.20;31.58;102658.88;4904077;29;20673;-67
2022/08/07 10:06:55;;;;;;;7.10;2.83;;;;;;;27.75;30.16;102651.88;4903988;29;20058;-66
2022/08/07 10:09:45;;;;;;;3.57;2.03;;;;;;;27.45;30.53;102647.56;4891480;29;20056;-68
2022/08/07 10:12:46;;;;;;;3.53;2.35;;;;;;;26.77;32.34;102644.09;4900470;29;20504;-68
2022/08/07 10:15:37;;;;;;;4.50;2.53;;;;;;;27.02;31.67;102640.28;4890448;29;20056;-67
2022/08/07 10:18:24;;;;;;;4.97;2.83;;;;;;;27.03;31.09;102635.59;4866419;29;20072;-66
2022/08/07 10:21:16;;;;;;;2.40;2.20;;;;;;;27.68;29.74;102630.13;4917889;28;20551;-67
2022/08/07 10:24:24;;;;;;;2.17;1.98;;;;;;;26.87;31.30;102629.38;4942123;28;20031;-68
2022/08/07 10:27:04;;;;;;;4.18;1.98;;;;;;;27.68;30.86;102627.38;4924236;29;20062;-66
2022/08/07 10:29:48;;;;;;;;;;;;;;;27.50;30.87;102621.78;4924642;29;20166;-67
2022/08/07 10:32:30;;;;;;;3.70;2.15;;;;;;;27.24;31.54;102623.22;4916618;29;19954;-69
2022/08/07 10:35:11;;;;;;;2.50;2.30;;;;;;;27.15;30.61;102627.72;4912570;29;20067;-68
2022/08/07 10:37:54;;;;;;;3.30;2.33;;;;;;;27.68;28.97;102616.31;4953711;28;20126;-68
2022/08/07 10:40:29;;;;;;;4.03;2.72;;;;;;;27.23;30.50;102613.25;4938303;28;20047;-67
2022/08/07 10:43:09;;;;;;;6.03;2.10;;;;;;;27.95;29.79;102617.63;4945271;28;20546;-68
2022/08/07 10:45:40;;;;;;;3.00;2.33;;;;;;;27.23;31.73;102614.09;4953435;28;20051;-67
2022/08/07 10:48:34;;;;;;;2.83;1.83;;;;;;;27.98;29.84;102608.72;4948059;28;20122;-66
2022/08/07 10:51:24;;;;;;;2.40;1.63;;;;;;;28.71;29.07;102597.88;4938668;29;20031;-66
2022/08/07 10:54:03;;;;;;;2.58;2.05;;;;;;;28.40;28.83;102600.31;4950173;28;20039;-67
2022/08/07 10:57:06;;;;;;;3.15;2.45;;;;;;;27.96;28.87;102586.94;4934828;29;20054;-67
2022/08/07 10:59:51;;;;;;;2.40;1.98;;;;;;;27.94;29.94;102594.66;4952051;28;20521;-68
2022/08/07 11:02:42;;;;;;;5.32;2.03;;;;;;;28.44;28.63;102591.09;4944842;29;20047;-64
2022/08/07 11:05:23;;;;;;;2.95;2.17;;;;;;;28.28;28.27;102592.50;4956174;28;20047;-68
2022/08/07 11:08:07;;;;;;;4.43;2.08;;;;;;;28.58;27.93;102583.69;4955875;28;20046;-69
2022/08/07 11:10:42;;;;;;;2.72;1.60;;;;;;;28.73;27.90;102581.78;4955838;28;20039;-67
2022/08/07 11:13:23;;;;;;;2.92;1.77;;;;;;;29.75;26.36;102573.88;4982449;28;20395;-66
2022/08/07 11:15:53;;;;;;;2.55;1.70;;;;;;;29.29;26.25;102568.50;4988947;28;20649;-67
2022/08/07 11:18:28;;;;;;;2.53;1.35;;;;;;;28.58;26.52;102569.03;4986528;28;20054;-67
2022/08/07 11:21:09;;;;;;;3.10;1.40;;;;;;;29.24;25.49;102568.63;4974832;28;20153;-66
2022/08/07 11:23:43;;;;;;;2.60;1.63;;;;;;;28.65;27.39;102572.25;4989669;28;20212;-67
2022/08/07 11:26:31;;;;;;;3.05;1.80;;;;;;;28.68;27.27;102568.06;4991599;28;20490;-66
2022/08/07 11:29:15;;;;;;;1.88;1.77;;;;;;;28.24;27.11;102577.63;4991696;28;20083;-66
2022/08/07 11:31:50;;;;;;;4.38;1.65;;;;;;;28.93;26.21;102565.63;4990509;28;20118;-66
2022/08/07 11:34:20;;;;;;;3.97;1.50;;;;;;;28.90;25.15;102568.16;4990954;28;20522;-67
2022/08/07 11:37:27;;;;;;;2.92;1.40;;;;;;;27.63;27.42;102563.91;4952370;28;20051;-67
2022/08/07 11:40:04;;;;;;;1.92;1.45;;;;;;;28.42;26.80;102562.91;4951883;28;20055;-66
2022/08/07 11:42:48;;;;;;;1.83;1.05;;;;;;;28.75;25.35;102566.53;4952139;28;20098;-65
2022/08/07 11:45:29;;;;;;;3.35;1.42;;;;;;;28.78;24.82;102556.75;4952183;28;20576;-67
2022/08/07 11:48:16;;;;;;;2.05;1.10;;;;;;;28.18;25.74;102553.97;4952122;28;20063;-67
2022/08/07 11:50:47;;;;;;;2.63;1.40;;;;;;;29.52;24.93;102546.09;4984539;28;20034;-67